sensor_id;sensor_type;location;lat;lon;timestamp;temperature;humidity
22568;DHT22;11450;50.818;4.382;2022-11-21T06:10:53;6.40;99.90
22568;DHT22;11450;50.818;4.382;2022-11-21T06:13:19;6.30;99.90
22568;DHT22;11450;50.818;4.382;2022-11-21T06:15:52;6.30;99.90
22568;DHT22;11450;50.818;4.382;2022-11-21T06:18:19;6.30;99.90
22568;DHT22;11450;50.818;4.382;2022-11-21T06:20:45;6.40;99.90
22568;DHT22;11450;50.818;4.382;2022-11-21T06:23:11;6.40;99.90
22568;DHT22;11450;50.818;4.382;2022-11-21T06:25:37;6.30;99.90
22568;DHT22;11450;50.818;4.382;2022-11-21T06:28:03;6.20;99.90
22568;DHT22;11450;50.818;4.382;2022-11-21T06:30:28;6.30;99.90
22568;DHT22;11450;50.818;4.382;2022-11-21T06:32:54;6.50;99.90
22568;DHT22;11450;50.818;4.382;2022-11-21T06:35:20;6.40;99.90
22568;DHT22;11450;50.818;4.382;2022-11-21T06:37:45;6.40;99.90
22568;DHT22;11450;50.818;4.382;2022-11-21T06:40:11;6.40;99.90
22568;DHT22;11450;50.818;4.382;2022-11-21T06:42:37;6.40;99.90
22568;DHT22;11450;50.818;4.382;2022-11-21T06:45:04;6.40;99.90
22568;DHT22;11450;50.818;4.382;2022-11-21T06:47:34;6.40;99.90
22568;DHT22;11450;50.818;4.382;2022-11-21T06:49:59;6.30;99.90
22568;DHT22;11450;50.818;4.382;2022-11-21T06:52:25;6.30;99.90
22568;DHT22;11450;50.818;4.382;2022-11-21T06:55:15;6.20;99.90
22568;DHT22;11450;50.818;4.382;2022-11-21T06:57:40;6.20;99.90
22568;DHT22;11450;50.818;4.382;2022-11-21T07:00:07;6.10;99.90
22568;DHT22;11450;50.818;4.382;2022-11-21T07:02:32;6.00;99.90
22568;DHT22;11450;50.818;4.382;2022-11-21T07:04:58;6.20;99.90
22568;DHT22;11450;50.818;4.382;2022-11-21T07:07:24;6.20;99.90
22568;DHT22;11450;50.818;4.382;2022-11-21T07:09:49;6.10;99.90
22568;DHT22;11450;50.818;4.382;2022-11-21T07:12:16;6.10;99.90
22568;DHT22;11450;50.818;4.382;2022-11-21T07:15:00;6.10;99.90
22568;DHT22;11450;50.818;4.382;2022-11-21T07:17:26;6.00;99.90
22568;DHT22;11450;50.818;4.382;2022-11-21T07:19:51;6.00;99.90
22568;DHT22;11450;50.818;4.382;2022-11-21T07:22:17;5.90;99.90
22568;DHT22;11450;50.818;4.382;2022-11-21T07:24:42;5.80;99.90
22568;DHT22;11450;50.818;4.382;2022-11-21T07:27:11;5.70;99.90
22568;DHT22;11450;50.818;4.382;2022-11-21T07:29:36;5.70;99.90
22568;DHT22;11450;50.818;4.382;2022-11-21T07:32:02;5.70;99.90
22568;DHT22;11450;50.818;4.382;2022-11-21T07:34:28;5.70;99.90
22568;DHT22;11450;50.818;4.382;2022-11-21T07:36:53;5.70;99.90
22568;DHT22;11450;50.818;4.382;2022-11-21T07:39:19;5.60;99.90
22568;DHT22;11450;50.818;4.382;2022-11-21T07:41:44;5.80;99.90
22568;DHT22;11450;50.818;4.382;2022-11-21T07:44:15;5.70;99.90
22568;DHT22;11450;50.818;4.382;2022-11-21T07:46:53;5.70;99.90
22568;DHT22;11450;50.818;4.382;2022-11-21T07:49:20;5.70;99.90
22568;DHT22;11450;50.818;4.382;2022-11-21T07:51:45;5.70;99.90
22568;DHT22;11450;50.818;4.382;2022-11-21T07:54:11;5.70;99.90
22568;DHT22;11450;50.818;4.382;2022-11-21T07:56:36;5.80;99.90
22568;DHT22;11450;50.818;4.382;2022-11-21T07:59:02;5.80;99.90
22568;DHT22;11450;50.818;4.382;2022-11-21T08:01:28;6.00;99.90
22568;DHT22;11450;50.818;4.382;2022-11-21T08:03:53;5.90;99.90
22568;DHT22;11450;50.818;4.382;2022-11-21T08:06:19;5.80;99.90
22568;DHT22;11450;50.818;4.382;2022-11-21T08:08:44;5.80;99.90
22568;DHT22;11450;50.818;4.382;2022-11-21T08:11:10;5.90;99.90
22568;DHT22;11450;50.818;4.382;2022-11-21T08:13:36;6.00;99.90
22568;DHT22;11450;50.818;4.382;2022-11-21T08:16:02;6.00;99.90
22568;DHT22;11450;50.818;4.382;2022-11-21T08:18:28;6.00;99.90
22568;DHT22;11450;50.818;4.382;2022-11-21T08:20:54;6.10;99.90
22568;DHT22;11450;50.818;4.382;2022-11-21T08:23:20;6.10;99.90
22568;DHT22;11450;50.818;4.382;2022-11-21T08:25:46;6.00;99.90
22568;DHT22;11450;50.818;4.382;2022-11-21T08:28:15;6.10;99.90
22568;DHT22;11450;50.818;4.382;2022-11-21T08:30:40;6.20;99.90
22568;DHT22;11450;50.818;4.382;2022-11-21T08:33:06;6.30;99.90
22568;DHT22;11450;50.818;4.382;2022-11-21T08:35:34;6.20;99.90
22568;DHT22;11450;50.818;4.382;2022-11-21T08:38:00;6.20;99.90
22568;DHT22;11450;50.818;4.382;2022-11-21T08:40:28;6.30;99.90
22568;DHT22;11450;50.818;4.382;2022-11-21T08:43:02;6.20;99.90
22568;DHT22;11450;50.818;4.382;2022-11-21T08:45:28;6.30;99.90
22568;DHT22;11450;50.818;4.382;2022-11-21T08:47:54;6.30;99.90
22568;DHT22;11450;50.818;4.382;2022-11-21T08:50:21;6.40;99.90
22568;DHT22;11450;50.818;4.382;2022-11-21T08:52:47;6.50;99.90
22568;DHT22;11450;50.818;4.382;2022-11-21T08:55:15;6.50;99.90
22568;DHT22;11450;50.818;4.382;2022-11-21T08:57:41;6.60;99.90
22568;DHT22;11450;50.818;4.382;2022-11-21T09:00:10;6.60;99.90
22568;DHT22;11450;50.818;4.382;2022-11-21T09:02:39;6.70;99.90
22568;DHT22;11450;50.818;4.382;2022-11-21T09:05:05;6.90;99.90
22568;DHT22;11450;50.818;4.382;2022-11-21T09:07:31;6.70;99.90
22568;DHT22;11450;50.818;4.382;2022-11-21T09:09:56;6.70;99.90
22568;DHT22;11450;50.818;4.382;2022-11-21T09:15:43;6.80;99.90
22568;DHT22;11450;50.818;4.382;2022-11-21T09:18:27;7.00;99.90
22568;DHT22;11450;50.818;4.382;2022-11-21T09:21:14;7.00;99.90
22568;DHT22;11450;50.818;4.382;2022-11-21T09:23:40;7.10;99.90
22568;DHT22;11450;50.818;4.382;2022-11-21T09:26:05;7.20;99.90
22568;DHT22;11450;50.818;4.382;2022-11-21T09:28:31;7.20;99.90
22568;DHT22;11450;50.818;4.382;2022-11-21T09:31:00;7.50;99.90
22568;DHT22;11450;50.818;4.382;2022-11-21T09:33:26;7.40;99.90
22568;DHT22;11450;50.818;4.382;2022-11-21T09:35:51;7.40;99.90
22568;DHT22;11450;50.818;4.382;2022-11-21T09:38:17;7.30;99.90
22568;DHT22;11450;50.818;4.382;2022-11-21T09:41:21;7.40;99.90
22568;DHT22;11450;50.818;4.382;2022-11-21T09:44:51;7.50;99.90
22568;DHT22;11450;50.818;4.382;2022-11-21T09:58:13;7.50;99.90
22568;DHT22;11450;50.818;4.382;2022-11-21T10:00:40;7.50;99.90
22568;DHT22;11450;50.818;4.382;2022-11-21T10:03:10;7.50;99.90
22568;DHT22;11450;50.818;4.382;2022-11-21T10:05:44;7.60;99.90
22568;DHT22;11450;50.818;4.382;2022-11-21T10:08:41;7.80;99.90
22568;DHT22;11450;50.818;4.382;2022-11-21T10:11:15;7.70;99.90
22568;DHT22;11450;50.818;4.382;2022-11-21T10:16:51;7.80;99.90
22568;DHT22;11450;50.818;4.382;2022-11-21T10:20:07;7.70;99.90
22568;DHT22;11450;50.818;4.382;2022-11-21T10:28:50;7.60;99.90
22568;DHT22;11450;50.818;4.382;2022-11-21T10:31:18;7.60;99.90
22568;DHT22;11450;50.818;4.382;2022-11-21T10:33:55;7.70;99.90
22568;DHT22;11450;50.818;4.382;2022-11-21T10:36:27;7.70;99.90
22568;DHT22;11450;50.818;4.382;2022-11-21T10:39:00;7.80;99.90
22568;DHT22;11450;50.818;4.382;2022-11-21T10:42:04;7.80;99.90
22568;DHT22;11450;50.818;4.382;2022-11-21T10:44:36;7.80;99.90
22568;DHT22;11450;50.818;4.382;2022-11-21T10:47:23;7.90;99.90
22568;DHT22;11450;50.818;4.382;2022-11-21T10:53:05;7.90;99.90
22568;DHT22;11450;50.818;4.382;2022-11-21T10:56:00;8.00;99.90
22568;DHT22;11450;50.818;4.382;2022-11-21T10:58:56;8.00;99.90
22568;DHT22;11450;50.818;4.382;2022-11-21T11:01:33;7.90;99.90
22568;DHT22;11450;50.818;4.382;2022-11-21T11:06:37;8.10;99.90
22568;DHT22;11450;50.818;4.382;2022-11-21T11:09:03;8.10;99.90
22568;DHT22;11450;50.818;4.382;2022-11-21T11:11:29;8.30;99.90
22568;DHT22;11450;50.818;4.382;2022-11-21T11:14:05;8.30;99.90
22568;DHT22;11450;50.818;4.382;2022-11-21T11:16:44;8.30;99.90
22568;DHT22;11450;50.818;4.382;2022-11-21T11:29:16;8.60;99.90
22568;DHT22;11450;50.818;4.382;2022-11-21T11:31:54;8.60;99.90
22568;DHT22;11450;50.818;4.382;2022-11-21T11:34:26;8.50;99.90
22568;DHT22;11450;50.818;4.382;2022-11-21T11:36:58;8.50;99.90
22568;DHT22;11450;50.818;4.382;2022-11-21T11:42:50;8.70;99.90
22568;DHT22;11450;50.818;4.382;2022-11-21T11:46:12;8.80;99.90
22568;DHT22;11450;50.818;4.382;2022-11-21T11:49:02;8.80;99.90
22568;DHT22;11450;50.818;4.382;2022-11-21T11:51:44;8.90;99.90
22568;DHT22;11450;50.818;4.382;2022-11-21T11:54:16;8.70;99.90
22568;DHT22;11450;50.818;4.382;2022-11-21T11:56:44;8.70;99.90
22568;DHT22;11450;50.818;4.382;2022-11-21T11:59:37;8.70;99.90
22568;DHT22;11450;50.818;4.382;2022-11-21T12:02:17;8.70;99.90
22568;DHT22;11450;50.818;4.382;2022-11-21T12:05:05;8.90;99.90
22568;DHT22;11450;50.818;4.382;2022-11-21T12:07:37;8.90;99.90
22568;DHT22;11450;50.818;4.382;2022-11-21T12:13:13;9.20;99.90
22568;DHT22;11450;50.818;4.382;2022-11-21T12:15:46;9.10;99.90
22568;DHT22;11450;50.818;4.382;2022-11-21T12:21:04;8.90;99.90
22568;DHT22;11450;50.818;4.382;2022-11-21T12:23:38;8.80;99.90
22568;DHT22;11450;50.818;4.382;2022-11-21T12:29:12;8.90;99.90
22568;DHT22;11450;50.818;4.382;2022-11-21T12:35:14;9.00;99.90
22568;DHT22;11450;50.818;4.382;2022-11-21T12:43:43;9.10;99.90
22568;DHT22;11450;50.818;4.382;2022-11-21T12:52:12;9.20;99.90
22568;DHT22;11450;50.818;4.382;2022-11-21T12:55:36;9.40;99.90
22568;DHT22;11450;50.818;4.382;2022-11-21T13:01:01;9.40;99.90
22568;DHT22;11450;50.818;4.382;2022-11-21T13:06:17;9.50;99.90
22568;DHT22;11450;50.818;4.382;2022-11-21T13:08:45;9.50;99.90
22568;DHT22;11450;50.818;4.382;2022-11-21T13:11:32;9.30;99.90
22568;DHT22;11450;50.818;4.382;2022-11-21T13:14:39;9.40;99.90
22568;DHT22;11450;50.818;4.382;2022-11-21T13:17:33;9.40;99.90
22568;DHT22;11450;50.818;4.382;2022-11-21T13:30:26;9.40;99.90
22568;DHT22;11450;50.818;4.382;2022-11-21T13:32:53;9.50;99.90
22568;DHT22;11450;50.818;4.382;2022-11-21T13:38:12;9.60;99.90
22568;DHT22;11450;50.818;4.382;2022-11-21T13:40:39;9.60;99.90
22568;DHT22;11450;50.818;4.382;2022-11-21T13:47:01;9.60;99.90
22568;DHT22;11450;50.818;4.382;2022-11-21T13:57:45;9.50;99.90
22568;DHT22;11450;50.818;4.382;2022-11-21T14:06:35;9.60;99.90
22568;DHT22;11450;50.818;4.382;2022-11-21T14:09:31;9.50;99.90
22568;DHT22;11450;50.818;4.382;2022-11-21T14:19:56;9.60;99.90
22568;DHT22;11450;50.818;4.382;2022-11-21T14:22:50;9.50;99.90
22568;DHT22;11450;50.818;4.382;2022-11-21T14:25:19;9.40;99.90
22568;DHT22;11450;50.818;4.382;2022-11-21T14:27:52;9.40;99.90
22568;DHT22;11450;50.818;4.382;2022-11-21T14:30:40;9.40;99.90
22568;DHT22;11450;50.818;4.382;2022-11-21T14:33:26;9.40;99.90
22568;DHT22;11450;50.818;4.382;2022-11-21T14:35:59;9.30;99.90
22568;DHT22;11450;50.818;4.382;2022-11-21T14:38:27;9.30;99.90
22568;DHT22;11450;50.818;4.382;2022-11-21T14:44:00;9.40;99.90
22568;DHT22;11450;50.818;4.382;2022-11-21T14:46:34;9.40;99.90
22568;DHT22;11450;50.818;4.382;2022-11-21T14:51:47;9.30;99.90
22568;DHT22;11450;50.818;4.382;2022-11-21T14:57:23;9.30;99.90
22568;DHT22;11450;50.818;4.382;2022-11-21T14:59:52;9.30;99.90
22568;DHT22;11450;50.818;4.382;2022-11-21T15:02:26;9.30;99.90
22568;DHT22;11450;50.818;4.382;2022-11-21T15:04:53;9.40;99.90
22568;DHT22;11450;50.818;4.382;2022-11-21T15:07:25;9.50;99.90
22568;DHT22;11450;50.818;4.382;2022-11-21T15:09:53;9.50;99.90
22568;DHT22;11450;50.818;4.382;2022-11-21T15:12:29;9.50;99.90
22568;DHT22;11450;50.818;4.382;2022-11-21T15:15:05;9.50;99.90
22568;DHT22;11450;50.818;4.382;2022-11-21T15:17:33;9.40;99.90
22568;DHT22;11450;50.818;4.382;2022-11-21T15:22:38;9.30;99.90
22568;DHT22;11450;50.818;4.382;2022-11-21T15:25:19;9.30;99.90
22568;DHT22;11450;50.818;4.382;2022-11-21T15:28:07;9.30;99.90
22568;DHT22;11450;50.818;4.382;2022-11-21T15:31:19;9.30;99.90
22568;DHT22;11450;50.818;4.382;2022-11-21T15:34:04;9.40;99.90
22568;DHT22;11450;50.818;4.382;2022-11-21T15:36:32;9.40;99.90
22568;DHT22;11450;50.818;4.382;2022-11-21T15:39:20;9.30;99.90
22568;DHT22;11450;50.818;4.382;2022-11-21T15:41:47;9.40;99.90
22568;DHT22;11450;50.818;4.382;2022-11-21T15:44:31;9.30;99.90
22568;DHT22;11450;50.818;4.382;2022-11-21T15:46:57;9.30;99.90
22568;DHT22;11450;50.818;4.382;2022-11-21T15:49:23;9.30;99.90
22568;DHT22;11450;50.818;4.382;2022-11-21T15:51:49;9.30;99.90
22568;DHT22;11450;50.818;4.382;2022-11-21T15:54:19;9.30;99.90
22568;DHT22;11450;50.818;4.382;2022-11-21T15:56:46;9.30;99.90
22568;DHT22;11450;50.818;4.382;2022-11-21T15:59:12;9.30;99.90
22568;DHT22;11450;50.818;4.382;2022-11-21T16:01:38;9.30;99.90
22568;DHT22;11450;50.818;4.382;2022-11-21T16:04:06;9.40;99.90
22568;DHT22;11450;50.818;4.382;2022-11-21T16:06:33;9.30;99.90
22568;DHT22;11450;50.818;4.382;2022-11-21T16:09:00;9.40;99.90
22568;DHT22;11450;50.818;4.382;2022-11-21T16:11:28;9.30;99.90
22568;DHT22;11450;50.818;4.382;2022-11-21T16:14:01;9.40;99.90
22568;DHT22;11450;50.818;4.382;2022-11-21T16:16:30;9.30;99.90
22568;DHT22;11450;50.818;4.382;2022-11-21T16:18:57;9.30;99.90
22568;DHT22;11450;50.818;4.382;2022-11-21T16:21:23;9.30;99.90
22568;DHT22;11450;50.818;4.382;2022-11-21T16:23:49;9.30;99.90
22568;DHT22;11450;50.818;4.382;2022-11-21T16:26:15;9.30;99.90
22568;DHT22;11450;50.818;4.382;2022-11-21T16:28:41;9.40;99.90
22568;DHT22;11450;50.818;4.382;2022-11-21T16:31:20;9.30;99.90
22568;DHT22;11450;50.818;4.382;2022-11-21T16:33:46;9.30;99.90
22568;DHT22;11450;50.818;4.382;2022-11-21T16:36:12;9.20;99.90
22568;DHT22;11450;50.818;4.382;2022-11-21T16:38:43;9.20;99.90
22568;DHT22;11450;50.818;4.382;2022-11-21T16:41:09;9.10;99.90
22568;DHT22;11450;50.818;4.382;2022-11-21T16:43:34;9.00;99.90
22568;DHT22;11450;50.818;4.382;2022-11-21T16:46:07;9.00;99.90
22568;DHT22;11450;50.818;4.382;2022-11-21T16:48:33;9.00;99.90
22568;DHT22;11450;50.818;4.382;2022-11-21T16:51:11;9.00;99.90
22568;DHT22;11450;50.818;4.382;2022-11-21T16:53:38;9.10;99.90
22568;DHT22;11450;50.818;4.382;2022-11-21T16:56:05;9.00;99.90
22568;DHT22;11450;50.818;4.382;2022-11-21T16:58:33;9.10;99.90
22568;DHT22;11450;50.818;4.382;2022-11-21T17:01:19;9.10;99.90
22568;DHT22;11450;50.818;4.382;2022-11-21T17:03:47;9.00;99.90
22568;DHT22;11450;50.818;4.382;2022-11-21T17:06:18;9.00;99.90
22568;DHT22;11450;50.818;4.382;2022-11-21T17:08:45;9.00;99.90
22568;DHT22;11450;50.818;4.382;2022-11-21T17:13:46;8.90;99.90
22568;DHT22;11450;50.818;4.382;2022-11-21T17:16:19;8.80;99.90
22568;DHT22;11450;50.818;4.382;2022-11-21T17:18:46;8.80;99.90
22568;DHT22;11450;50.818;4.382;2022-11-21T17:21:14;8.90;99.90
22568;DHT22;11450;50.818;4.382;2022-11-21T17:23:42;8.80;99.90
22568;DHT22;11450;50.818;4.382;2022-11-21T17:26:17;8.70;99.90
22568;DHT22;11450;50.818;4.382;2022-11-21T17:28:43;8.80;99.90
22568;DHT22;11450;50.818;4.382;2022-11-21T17:31:17;8.70;99.90
22568;DHT22;11450;50.818;4.382;2022-11-21T17:33:43;8.70;99.90
22568;DHT22;11450;50.818;4.382;2022-11-21T17:36:15;8.70;99.90
22568;DHT22;11450;50.818;4.382;2022-11-21T17:39:02;8.60;99.90
22568;DHT22;11450;50.818;4.382;2022-11-21T17:41:28;8.70;99.90
22568;DHT22;11450;50.818;4.382;2022-11-21T17:43:57;8.80;99.90
22568;DHT22;11450;50.818;4.382;2022-11-21T17:46:25;8.80;99.90
22568;DHT22;11450;50.818;4.382;2022-11-21T17:49:06;8.70;99.90
22568;DHT22;11450;50.818;4.382;2022-11-21T17:52:09;8.80;99.90
22568;DHT22;11450;50.818;4.382;2022-11-21T17:54:35;8.80;99.90
22568;DHT22;11450;50.818;4.382;2022-11-21T17:57:20;8.80;99.90
22568;DHT22;11450;50.818;4.382;2022-11-21T17:59:46;8.70;99.90
22568;DHT22;11450;50.818;4.382;2022-11-21T18:02:17;8.70;99.90
22568;DHT22;11450;50.818;4.382;2022-11-21T18:04:49;8.70;99.90
22568;DHT22;11450;50.818;4.382;2022-11-21T18:07:15;8.60;99.90
22568;DHT22;11450;50.818;4.382;2022-11-21T18:09:41;8.70;99.90
22568;DHT22;11450;50.818;4.382;2022-11-21T18:12:28;8.80;99.90
22568;DHT22;11450;50.818;4.382;2022-11-21T18:14:56;8.70;99.90
22568;DHT22;11450;50.818;4.382;2022-11-21T18:17:22;8.60;99.90
22568;DHT22;11450;50.818;4.382;2022-11-21T18:19:48;8.70;99.90
22568;DHT22;11450;50.818;4.382;2022-11-21T18:22:14;8.80;99.90
22568;DHT22;11450;50.818;4.382;2022-11-21T18:24:39;8.80;99.90
22568;DHT22;11450;50.818;4.382;2022-11-21T18:27:05;8.70;99.90
22568;DHT22;11450;50.818;4.382;2022-11-21T18:29:31;8.70;99.90
22568;DHT22;11450;50.818;4.382;2022-11-21T18:31:56;8.70;99.90
22568;DHT22;11450;50.818;4.382;2022-11-21T18:34:22;8.70;99.90
22568;DHT22;11450;50.818;4.382;2022-11-21T18:36:47;8.70;99.90
22568;DHT22;11450;50.818;4.382;2022-11-21T18:39:13;8.80;99.90
22568;DHT22;11450;50.818;4.382;2022-11-21T18:41:39;8.80;99.90
22568;DHT22;11450;50.818;4.382;2022-11-21T18:44:06;8.70;99.90
22568;DHT22;11450;50.818;4.382;2022-11-21T18:46:33;8.70;99.90
22568;DHT22;11450;50.818;4.382;2022-11-21T18:48:59;8.80;99.90
22568;DHT22;11450;50.818;4.382;2022-11-21T18:51:26;8.80;99.90
22568;DHT22;11450;50.818;4.382;2022-11-21T18:54:01;8.70;99.90
22568;DHT22;11450;50.818;4.382;2022-11-21T18:56:35;8.70;99.90
22568;DHT22;11450;50.818;4.382;2022-11-21T18:59:02;8.60;99.90
22568;DHT22;11450;50.818;4.382;2022-11-21T19:01:30;8.60;99.90
22568;DHT22;11450;50.818;4.382;2022-11-21T19:03:57;8.60;99.90
22568;DHT22;11450;50.818;4.382;2022-11-21T19:06:25;8.50;99.90
22568;DHT22;11450;50.818;4.382;2022-11-21T19:08:55;8.50;99.90
22568;DHT22;11450;50.818;4.382;2022-11-21T19:11:30;8.50;99.90
22568;DHT22;11450;50.818;4.382;2022-11-21T19:13:57;8.50;99.90
22568;DHT22;11450;50.818;4.382;2022-11-21T19:17:07;8.50;99.90
22568;DHT22;11450;50.818;4.382;2022-11-21T19:19:32;8.50;99.90
22568;DHT22;11450;50.818;4.382;2022-11-21T19:21:59;8.50;99.90
22568;DHT22;11450;50.818;4.382;2022-11-21T19:24:26;8.50;99.90
22568;DHT22;11450;50.818;4.382;2022-11-21T19:27:15;8.50;99.90
22568;DHT22;11450;50.818;4.382;2022-11-21T19:29:43;8.40;99.90
22568;DHT22;11450;50.818;4.382;2022-11-21T21:03:45;8.20;99.90
22568;DHT22;11450;50.818;4.382;2022-11-21T21:06:12;8.20;99.90
22568;DHT22;11450;50.818;4.382;2022-11-21T21:08:40;8.30;99.90
22568;DHT22;11450;50.818;4.382;2022-11-21T21:11:11;8.40;99.90
22568;DHT22;11450;50.818;4.382;2022-11-21T21:13:37;8.50;99.90
22568;DHT22;11450;50.818;4.382;2022-11-21T21:16:05;8.40;99.90
22568;DHT22;11450;50.818;4.382;2022-11-21T21:18:33;8.40;99.90
22568;DHT22;11450;50.818;4.382;2022-11-21T21:21:06;8.40;99.90
22568;DHT22;11450;50.818;4.382;2022-11-21T21:23:33;8.40;99.90
22568;DHT22;11450;50.818;4.382;2022-11-21T21:26:10;8.30;99.90
22568;DHT22;11450;50.818;4.382;2022-11-21T21:28:37;8.30;99.90
22568;DHT22;11450;50.818;4.382;2022-11-21T21:31:13;8.30;99.90
22568;DHT22;11450;50.818;4.382;2022-11-21T21:33:40;8.40;99.90
22568;DHT22;11450;50.818;4.382;2022-11-21T21:36:11;8.50;99.90
22568;DHT22;11450;50.818;4.382;2022-11-21T21:38:38;8.50;99.90
22568;DHT22;11450;50.818;4.382;2022-11-21T21:41:11;8.50;99.90
22568;DHT22;11450;50.818;4.382;2022-11-21T21:43:37;8.40;99.90
22568;DHT22;11450;50.818;4.382;2022-11-21T21:46:10;8.40;99.90
22568;DHT22;11450;50.818;4.382;2022-11-21T21:48:39;8.40;99.90
22568;DHT22;11450;50.818;4.382;2022-11-21T21:51:06;8.40;99.90
22568;DHT22;11450;50.818;4.382;2022-11-21T21:53:35;8.50;99.90
22568;DHT22;11450;50.818;4.382;2022-11-21T21:56:19;8.50;99.90
22568;DHT22;11450;50.818;4.382;2022-11-21T22:01:29;8.40;99.90
22568;DHT22;11450;50.818;4.382;2022-11-21T22:04:00;8.40;99.90
22568;DHT22;11450;50.818;4.382;2022-11-21T22:06:44;8.30;99.90
22568;DHT22;11450;50.818;4.382;2022-11-21T22:09:12;8.40;99.90
22568;DHT22;11450;50.818;4.382;2022-11-21T22:11:38;8.40;99.90
22568;DHT22;11450;50.818;4.382;2022-11-21T22:14:13;8.30;99.90
22568;DHT22;11450;50.818;4.382;2022-11-21T22:16:40;8.30;99.90
22568;DHT22;11450;50.818;4.382;2022-11-21T22:19:06;8.30;99.90
22568;DHT22;11450;50.818;4.382;2022-11-21T22:21:36;8.30;99.90
22568;DHT22;11450;50.818;4.382;2022-11-21T22:24:12;8.30;99.90
22568;DHT22;11450;50.818;4.382;2022-11-21T22:26:38;8.30;99.90
22568;DHT22;11450;50.818;4.382;2022-11-21T22:29:04;8.20;99.90
22568;DHT22;11450;50.818;4.382;2022-11-21T22:31:30;8.20;99.90
22568;DHT22;11450;50.818;4.382;2022-11-21T22:33:56;8.10;99.90
22568;DHT22;11450;50.818;4.382;2022-11-21T22:36:22;8.20;99.90
22568;DHT22;11450;50.818;4.382;2022-11-21T22:38:50;8.30;99.90
22568;DHT22;11450;50.818;4.382;2022-11-21T22:41:20;8.30;99.90
22568;DHT22;11450;50.818;4.382;2022-11-21T22:43:52;8.30;99.90
22568;DHT22;11450;50.818;4.382;2022-11-21T22:46:26;8.20;99.90
22568;DHT22;11450;50.818;4.382;2022-11-21T22:48:53;8.20;99.90
22568;DHT22;11450;50.818;4.382;2022-11-21T22:51:21;8.10;99.90
22568;DHT22;11450;50.818;4.382;2022-11-21T22:53:50;8.20;99.90
22568;DHT22;11450;50.818;4.382;2022-11-21T22:56:18;8.20;99.90
22568;DHT22;11450;50.818;4.382;2022-11-21T22:58:45;8.20;99.90
22568;DHT22;11450;50.818;4.382;2022-11-21T23:01:18;8.10;99.90
22568;DHT22;11450;50.818;4.382;2022-11-21T23:03:45;8.20;99.90
22568;DHT22;11450;50.818;4.382;2022-11-21T23:06:13;8.20;99.90
22568;DHT22;11450;50.818;4.382;2022-11-21T23:08:40;8.20;99.90
22568;DHT22;11450;50.818;4.382;2022-11-21T23:11:13;8.10;99.90
22568;DHT22;11450;50.818;4.382;2022-11-21T23:13:41;8.00;99.90
22568;DHT22;11450;50.818;4.382;2022-11-21T23:16:08;8.00;99.90
22568;DHT22;11450;50.818;4.382;2022-11-21T23:18:33;8.10;99.90
22568;DHT22;11450;50.818;4.382;2022-11-21T23:21:00;8.10;99.90
22568;DHT22;11450;50.818;4.382;2022-11-21T23:23:26;8.00;99.90
22568;DHT22;11450;50.818;4.382;2022-11-21T23:25:52;8.00;99.90
22568;DHT22;11450;50.818;4.382;2022-11-21T23:28:18;8.10;99.90
22568;DHT22;11450;50.818;4.382;2022-11-21T23:30:45;8.00;99.90
22568;DHT22;11450;50.818;4.382;2022-11-21T23:33:11;8.10;99.90
22568;DHT22;11450;50.818;4.382;2022-11-21T23:35:37;8.00;99.90
22568;DHT22;11450;50.818;4.382;2022-11-21T23:38:03;7.90;99.90
22568;DHT22;11450;50.818;4.382;2022-11-21T23:40:29;7.90;99.90
22568;DHT22;11450;50.818;4.382;2022-11-21T23:42:55;7.90;99.90
22568;DHT22;11450;50.818;4.382;2022-11-21T23:45:21;7.90;99.90
22568;DHT22;11450;50.818;4.382;2022-11-21T23:47:46;7.90;99.90
22568;DHT22;11450;50.818;4.382;2022-11-21T23:50:12;7.90;99.90
22568;DHT22;11450;50.818;4.382;2022-11-21T23:52:39;7.90;99.90
22568;DHT22;11450;50.818;4.382;2022-11-21T23:55:05;7.90;99.90
22568;DHT22;11450;50.818;4.382;2022-11-21T23:57:31;7.90;99.90
22568;DHT22;11450;50.818;4.382;2022-11-21T23:59:57;7.80;99.90
